sensor_id;sensor_type;location;lat;lon;timestamp;pressure;altitude;pressure_sealevel;temperature;humidity
57248;BME280;55809;46.618;10.764;2023-02-26T00:00:14;91249.31;;;4.80;39.18
57248;BME280;55809;46.618;10.764;2023-02-26T00:02:43;91246.31;;;4.78;39.52
57248;BME280;55809;46.618;10.764;2023-02-26T00:05:13;91244.53;;;4.68;39.86
57248;BME280;55809;46.618;10.764;2023-02-26T00:07:41;91302.28;;;5.16;38.19
57248;BME280;55809;46.618;10.764;2023-02-26T00:10:11;91269.22;;;4.76;38.90
57248;BME280;55809;46.618;10.764;2023-02-26T00:12:40;91263.72;;;4.59;39.82
57248;BME280;55809;46.618;10.764;2023-02-26T00:15:13;91285.53;;;4.85;37.67
57248;BME280;55809;46.618;10.764;2023-02-26T00:17:46;91315.28;;;5.17;37.42
57248;BME280;55809;46.618;10.764;2023-02-26T00:20:17;91327.72;;;5.28;36.51
57248;BME280;55809;46.618;10.764;2023-02-26T00:22:44;91300.03;;;5.14;37.30
57248;BME280;55809;46.618;10.764;2023-02-26T00:25:11;91330.41;;;5.28;37.49
57248;BME280;55809;46.618;10.764;2023-02-26T00:27:39;91294.41;;;5.05;36.16
57248;BME280;55809;46.618;10.764;2023-02-26T00:30:08;91302.50;;;5.02;36.43
57248;BME280;55809;46.618;10.764;2023-02-26T00:32:37;91316.13;;;5.11;36.18
57248;BME280;55809;46.618;10.764;2023-02-26T00:35:06;91345.44;;;5.18;36.12
57248;BME280;55809;46.618;10.764;2023-02-26T00:37:48;91291.72;;;4.78;36.13
57248;BME280;55809;46.618;10.764;2023-02-26T00:40:22;91313.13;;;4.78;35.62
57248;BME280;55809;46.618;10.764;2023-02-26T00:42:55;91240.75;;;4.35;34.20
57248;BME280;55809;46.618;10.764;2023-02-26T00:45:25;91348.38;;;5.00;34.85
57248;BME280;55809;46.618;10.764;2023-02-26T00:48:00;91309.22;;;4.52;34.60
57248;BME280;55809;46.618;10.764;2023-02-26T00:50:32;91325.94;;;4.60;35.10
57248;BME280;55809;46.618;10.764;2023-02-26T00:53:06;91345.28;;;4.71;34.83
57248;BME280;55809;46.618;10.764;2023-02-26T00:55:34;91278.22;;;4.28;35.97
57248;BME280;55809;46.618;10.764;2023-02-26T00:58:03;91340.03;;;4.60;35.19
57248;BME280;55809;46.618;10.764;2023-02-26T01:00:32;91299.56;;;4.31;34.37
57248;BME280;55809;46.618;10.764;2023-02-26T01:03:02;91378.72;;;4.83;35.39
57248;BME280;55809;46.618;10.764;2023-02-26T01:05:31;91382.09;;;4.90;35.00
57248;BME280;55809;46.618;10.764;2023-02-26T01:08:03;91379.91;;;4.82;34.80
57248;BME280;55809;46.618;10.764;2023-02-26T01:10:33;91323.09;;;4.40;34.57
57248;BME280;55809;46.618;10.764;2023-02-26T01:13:02;91308.13;;;4.15;33.98
57248;BME280;55809;46.618;10.764;2023-02-26T01:15:31;91343.75;;;4.36;33.74
57248;BME280;55809;46.618;10.764;2023-02-26T01:18:05;91394.09;;;4.75;33.92
57248;BME280;55809;46.618;10.764;2023-02-26T01:20:41;91379.53;;;4.80;33.61
57248;BME280;55809;46.618;10.764;2023-02-26T01:23:14;91394.53;;;4.70;33.32
57248;BME280;55809;46.618;10.764;2023-02-26T01:25:44;91371.84;;;4.51;32.47
57248;BME280;55809;46.618;10.764;2023-02-26T01:28:15;91375.28;;;4.52;32.69
57248;BME280;55809;46.618;10.764;2023-02-26T01:30:43;91343.47;;;4.27;33.65
57248;BME280;55809;46.618;10.764;2023-02-26T01:33:17;91348.72;;;4.34;31.60
57248;BME280;55809;46.618;10.764;2023-02-26T01:35:50;91343.91;;;4.21;32.28
57248;BME280;55809;46.618;10.764;2023-02-26T01:38:23;91408.50;;;4.47;31.13
57248;BME280;55809;46.618;10.764;2023-02-26T01:44:13;91321.78;;;3.80;32.75
57248;BME280;55809;46.618;10.764;2023-02-26T01:46:56;91377.97;;;4.07;31.74
57248;BME280;55809;46.618;10.764;2023-02-26T01:49:29;91343.06;;;3.87;32.29
57248;BME280;55809;46.618;10.764;2023-02-26T01:51:57;91322.88;;;3.86;32.42
57248;BME280;55809;46.618;10.764;2023-02-26T01:54:28;91411.97;;;4.44;31.49
57248;BME280;55809;46.618;10.764;2023-02-26T01:56:59;91368.56;;;3.95;31.30
57248;BME280;55809;46.618;10.764;2023-02-26T01:59:30;91365.50;;;3.96;31.65
57248;BME280;55809;46.618;10.764;2023-02-26T02:01:58;91369.94;;;4.10;30.81
57248;BME280;55809;46.618;10.764;2023-02-26T02:04:31;91423.47;;;4.41;30.67
57248;BME280;55809;46.618;10.764;2023-02-26T02:06:59;91428.06;;;4.37;31.76
57248;BME280;55809;46.618;10.764;2023-02-26T02:09:26;91360.53;;;3.98;31.13
57248;BME280;55809;46.618;10.764;2023-02-26T02:12:08;91412.06;;;4.33;30.75
57248;BME280;55809;46.618;10.764;2023-02-26T02:14:45;91416.34;;;4.23;31.40
57248;BME280;55809;46.618;10.764;2023-02-26T02:17:19;91364.84;;;3.82;31.21
57248;BME280;55809;46.618;10.764;2023-02-26T02:20:35;91420.28;;;4.12;31.46
57248;BME280;55809;46.618;10.764;2023-02-26T02:23:11;91406.72;;;3.92;32.14
57248;BME280;55809;46.618;10.764;2023-02-26T02:26:18;91405.59;;;3.89;31.83
57248;BME280;55809;46.618;10.764;2023-02-26T02:29:02;91400.34;;;3.79;31.37
57248;BME280;55809;46.618;10.764;2023-02-26T02:31:39;91431.84;;;3.94;30.98
57248;BME280;55809;46.618;10.764;2023-02-26T02:34:12;91433.44;;;3.88;32.93
57248;BME280;55809;46.618;10.764;2023-02-26T02:36:48;91355.34;;;3.25;32.97
57248;BME280;55809;46.618;10.764;2023-02-26T02:39:22;91410.75;;;3.62;33.78
57248;BME280;55809;46.618;10.764;2023-02-26T02:41:53;91443.78;;;3.83;33.87
57248;BME280;55809;46.618;10.764;2023-02-26T02:44:25;91436.50;;;3.87;34.07
57248;BME280;55809;46.618;10.764;2023-02-26T02:46:58;91359.56;;;3.26;34.69
57248;BME280;55809;46.618;10.764;2023-02-26T02:49:28;91436.91;;;3.82;33.44
57248;BME280;55809;46.618;10.764;2023-02-26T02:52:02;91440.38;;;3.79;31.88
57248;BME280;55809;46.618;10.764;2023-02-26T02:54:50;91447.56;;;3.82;32.11
57248;BME280;55809;46.618;10.764;2023-02-26T02:57:22;91448.38;;;3.79;31.37
57248;BME280;55809;46.618;10.764;2023-02-26T02:59:53;91400.59;;;3.43;32.53
57248;BME280;55809;46.618;10.764;2023-02-26T03:02:29;91393.38;;;3.36;31.08
57248;BME280;55809;46.618;10.764;2023-02-26T03:04:57;91415.41;;;3.47;30.59
57248;BME280;55809;46.618;10.764;2023-02-26T03:07:25;91459.84;;;3.75;31.26
57248;BME280;55809;46.618;10.764;2023-02-26T03:09:52;91393.81;;;3.27;31.24
57248;BME280;55809;46.618;10.764;2023-02-26T03:12:20;91427.56;;;3.52;31.75
57248;BME280;55809;46.618;10.764;2023-02-26T03:14:49;91368.06;;;2.99;31.32
57248;BME280;55809;46.618;10.764;2023-02-26T03:17:20;91434.47;;;3.46;32.13
57248;BME280;55809;46.618;10.764;2023-02-26T03:20:03;91465.59;;;3.67;32.13
57248;BME280;55809;46.618;10.764;2023-02-26T03:22:40;91403.28;;;3.32;32.31
57248;BME280;55809;46.618;10.764;2023-02-26T03:25:15;91412.88;;;3.26;32.17
57248;BME280;55809;46.618;10.764;2023-02-26T03:27:49;91449.69;;;3.45;31.67
57248;BME280;55809;46.618;10.764;2023-02-26T03:30:22;91425.06;;;3.23;33.53
57248;BME280;55809;46.618;10.764;2023-02-26T03:32:56;91384.44;;;2.98;33.95
57248;BME280;55809;46.618;10.764;2023-02-26T03:35:32;91475.63;;;3.41;33.88
57248;BME280;55809;46.618;10.764;2023-02-26T03:38:05;91474.19;;;3.26;33.34
57248;BME280;55809;46.618;10.764;2023-02-26T03:40:36;91485.28;;;3.17;33.11
57248;BME280;55809;46.618;10.764;2023-02-26T03:43:11;91426.38;;;2.79;34.96
57248;BME280;55809;46.618;10.764;2023-02-26T03:45:42;91426.03;;;2.77;33.47
57248;BME280;55809;46.618;10.764;2023-02-26T03:48:15;91413.53;;;2.49;33.48
57248;BME280;55809;46.618;10.764;2023-02-26T03:50:49;91485.00;;;2.90;35.37
57248;BME280;55809;46.618;10.764;2023-02-26T03:53:21;91458.75;;;2.74;35.14
57248;BME280;55809;46.618;10.764;2023-02-26T03:55:56;91455.34;;;2.70;34.04
57248;BME280;55809;46.618;10.764;2023-02-26T03:58:26;91390.41;;;2.25;34.63
57248;BME280;55809;46.618;10.764;2023-02-26T04:00:58;91411.25;;;2.51;34.92
57248;BME280;55809;46.618;10.764;2023-02-26T04:03:31;91478.50;;;2.91;35.12
57248;BME280;55809;46.618;10.764;2023-02-26T04:06:01;91391.88;;;2.37;34.86
57248;BME280;55809;46.618;10.764;2023-02-26T04:08:30;91470.94;;;2.75;35.45
57248;BME280;55809;46.618;10.764;2023-02-26T04:10:59;91477.44;;;2.71;34.52
57248;BME280;55809;46.618;10.764;2023-02-26T04:13:32;91447.41;;;2.45;35.13
57248;BME280;55809;46.618;10.764;2023-02-26T04:16:01;91480.47;;;2.62;36.01
57248;BME280;55809;46.618;10.764;2023-02-26T04:18:28;91487.31;;;2.70;35.13
57248;BME280;55809;46.618;10.764;2023-02-26T04:20:55;91475.19;;;2.44;35.51
57248;BME280;55809;46.618;10.764;2023-02-26T04:23:24;91478.22;;;2.46;36.09
57248;BME280;55809;46.618;10.764;2023-02-26T04:25:51;91400.72;;;1.76;36.09
57248;BME280;55809;46.618;10.764;2023-02-26T04:28:18;91486.59;;;2.23;36.10
57248;BME280;55809;46.618;10.764;2023-02-26T04:30:45;91445.16;;;1.97;36.26
57248;BME280;55809;46.618;10.764;2023-02-26T04:33:13;91483.59;;;2.21;36.28
57248;BME280;55809;46.618;10.764;2023-02-26T04:35:41;91480.91;;;2.21;37.32
57248;BME280;55809;46.618;10.764;2023-02-26T04:38:08;91405.28;;;1.72;36.78
57248;BME280;55809;46.618;10.764;2023-02-26T04:40:36;91442.91;;;1.92;37.01
57248;BME280;55809;46.618;10.764;2023-02-26T04:43:05;91454.66;;;1.87;36.31
57248;BME280;55809;46.618;10.764;2023-02-26T04:45:33;91470.66;;;1.95;37.66
57248;BME280;55809;46.618;10.764;2023-02-26T04:48:00;91484.31;;;2.00;37.11
57248;BME280;55809;46.618;10.764;2023-02-26T04:50:27;91483.56;;;2.03;37.93
57248;BME280;55809;46.618;10.764;2023-02-26T04:52:54;91400.69;;;1.48;38.19
57248;BME280;55809;46.618;10.764;2023-02-26T04:55:21;91474.84;;;1.96;37.01
57248;BME280;55809;46.618;10.764;2023-02-26T04:57:50;91462.28;;;2.00;37.70
57248;BME280;55809;46.618;10.764;2023-02-26T05:00:17;91482.81;;;2.24;37.01
57248;BME280;55809;46.618;10.764;2023-02-26T05:02:45;91415.91;;;1.83;36.71
57248;BME280;55809;46.618;10.764;2023-02-26T05:05:12;91435.69;;;1.82;36.63
57248;BME280;55809;46.618;10.764;2023-02-26T05:07:39;91450.88;;;1.88;37.64
57248;BME280;55809;46.618;10.764;2023-02-26T05:10:06;91425.81;;;1.75;37.31
57248;BME280;55809;46.618;10.764;2023-02-26T05:12:36;91444.44;;;1.75;37.05
57248;BME280;55809;46.618;10.764;2023-02-26T05:15:07;91437.19;;;1.76;37.52
57248;BME280;55809;46.618;10.764;2023-02-26T05:17:34;91431.13;;;1.79;37.82
57248;BME280;55809;46.618;10.764;2023-02-26T05:20:01;91456.19;;;2.03;36.59
57248;BME280;55809;46.618;10.764;2023-02-26T05:22:28;91465.31;;;2.16;36.41
57248;BME280;55809;46.618;10.764;2023-02-26T05:24:55;91438.72;;;1.95;36.06
57248;BME280;55809;46.618;10.764;2023-02-26T05:27:22;91466.47;;;2.22;36.04
57248;BME280;55809;46.618;10.764;2023-02-26T05:29:50;91381.34;;;1.76;36.62
57248;BME280;55809;46.618;10.764;2023-02-26T05:32:18;91458.84;;;2.35;35.07
57248;BME280;55809;46.618;10.764;2023-02-26T05:34:45;91396.16;;;2.02;35.05
57248;BME280;55809;46.618;10.764;2023-02-26T05:37:12;91399.94;;;1.97;35.47
57248;BME280;55809;46.618;10.764;2023-02-26T05:39:39;91454.66;;;2.34;35.59
57248;BME280;55809;46.618;10.764;2023-02-26T05:42:07;91420.84;;;2.02;34.72
57248;BME280;55809;46.618;10.764;2023-02-26T05:44:36;91369.56;;;1.73;34.79
57248;BME280;55809;46.618;10.764;2023-02-26T05:47:04;91394.66;;;1.76;35.06
57248;BME280;55809;46.618;10.764;2023-02-26T05:49:33;91440.97;;;2.10;35.30
57248;BME280;55809;46.618;10.764;2023-02-26T05:52:00;91470.66;;;2.30;35.08
57248;BME280;55809;46.618;10.764;2023-02-26T05:54:27;91463.78;;;2.33;34.77
57248;BME280;55809;46.618;10.764;2023-02-26T05:56:54;91470.28;;;2.25;34.57
57248;BME280;55809;46.618;10.764;2023-02-26T05:59:21;91463.41;;;2.20;35.37
57248;BME280;55809;46.618;10.764;2023-02-26T06:01:49;91428.44;;;2.04;34.58
57248;BME280;55809;46.618;10.764;2023-02-26T06:04:16;91420.47;;;1.90;34.50
57248;BME280;55809;46.618;10.764;2023-02-26T06:06:45;91467.22;;;2.23;34.64
57248;BME280;55809;46.618;10.764;2023-02-26T06:09:12;91400.72;;;1.69;34.36
57248;BME280;55809;46.618;10.764;2023-02-26T06:11:39;91386.28;;;1.52;35.98
57248;BME280;55809;46.618;10.764;2023-02-26T06:14:08;91433.41;;;1.80;36.26
57248;BME280;55809;46.618;10.764;2023-02-26T06:16:42;91376.78;;;1.40;35.49
57248;BME280;55809;46.618;10.764;2023-02-26T06:19:09;91426.19;;;1.67;34.85
57248;BME280;55809;46.618;10.764;2023-02-26T06:21:36;91482.81;;;2.10;35.10
57248;BME280;55809;46.618;10.764;2023-02-26T06:24:06;91421.25;;;1.69;35.55
57248;BME280;55809;46.618;10.764;2023-02-26T06:26:33;91495.75;;;2.11;35.01
57248;BME280;55809;46.618;10.764;2023-02-26T06:29:00;91500.69;;;2.06;34.94
57248;BME280;55809;46.618;10.764;2023-02-26T06:31:27;91440.97;;;1.60;35.20
57248;BME280;55809;46.618;10.764;2023-02-26T06:33:54;91514.75;;;2.03;34.70
57248;BME280;55809;46.618;10.764;2023-02-26T06:36:21;91523.88;;;2.05;33.88
57248;BME280;55809;46.618;10.764;2023-02-26T06:38:48;91513.59;;;1.82;34.49
57248;BME280;55809;46.618;10.764;2023-02-26T06:41:16;91461.09;;;1.51;34.76
57248;BME280;55809;46.618;10.764;2023-02-26T06:43:43;91479.75;;;1.61;34.73
57248;BME280;55809;46.618;10.764;2023-02-26T06:46:12;91482.41;;;1.61;35.26
57248;BME280;55809;46.618;10.764;2023-02-26T06:48:39;91557.31;;;2.06;35.60
57248;BME280;55809;46.618;10.764;2023-02-26T06:51:06;91566.47;;;2.16;36.29
57248;BME280;55809;46.618;10.764;2023-02-26T06:53:33;91535.28;;;1.95;36.57
57248;BME280;55809;46.618;10.764;2023-02-26T06:56:01;91494.97;;;1.86;36.52
57248;BME280;55809;46.618;10.764;2023-02-26T06:58:32;91506.00;;;2.34;35.93
57248;BME280;55809;46.618;10.764;2023-02-26T07:00:59;91565.66;;;3.05;34.30
57248;BME280;55809;46.618;10.764;2023-02-26T07:03:26;91580.88;;;3.12;34.38
57248;BME280;55809;46.618;10.764;2023-02-26T07:05:54;91585.06;;;3.20;33.35
57248;BME280;55809;46.618;10.764;2023-02-26T07:08:21;91599.53;;;3.15;33.34
57248;BME280;55809;46.618;10.764;2023-02-26T07:10:48;91593.84;;;3.06;32.77
57248;BME280;55809;46.618;10.764;2023-02-26T07:13:17;91537.50;;;2.86;33.12
57248;BME280;55809;46.618;10.764;2023-02-26T07:15:48;91604.44;;;3.31;31.63
57248;BME280;55809;46.618;10.764;2023-02-26T07:18:15;91608.22;;;3.41;31.71
57248;BME280;55809;46.618;10.764;2023-02-26T07:20:43;91573.28;;;3.03;31.80
57248;BME280;55809;46.618;10.764;2023-02-26T07:23:12;91573.22;;;3.28;31.59
57248;BME280;55809;46.618;10.764;2023-02-26T07:25:40;91617.72;;;3.60;31.66
57248;BME280;55809;46.618;10.764;2023-02-26T07:28:08;91546.56;;;3.28;29.83
57248;BME280;55809;46.618;10.764;2023-02-26T07:30:36;91542.75;;;3.22;30.71
57248;BME280;55809;46.618;10.764;2023-02-26T07:36:27;91580.19;;;2.65;30.80
57248;BME280;55809;46.618;10.764;2023-02-26T07:42:09;91586.56;;;1.85;31.67
57248;BME280;55809;46.618;10.764;2023-02-26T07:44:59;91512.34;;;1.37;30.94
57248;BME280;55809;46.618;10.764;2023-02-26T07:47:54;91643.66;;;2.16;31.43
57248;BME280;55809;46.618;10.764;2023-02-26T07:50:33;91599.47;;;1.86;31.72
57248;BME280;55809;46.618;10.764;2023-02-26T07:53:05;91556.84;;;1.58;31.34
57248;BME280;55809;46.618;10.764;2023-02-26T07:55:34;91655.09;;;2.27;31.58
57248;BME280;55809;46.618;10.764;2023-02-26T07:58:02;91642.16;;;2.26;31.29
57248;BME280;55809;46.618;10.764;2023-02-26T08:00:30;91614.78;;;2.36;31.14
57248;BME280;55809;46.618;10.764;2023-02-26T08:02:59;91639.53;;;2.58;31.01
57248;BME280;55809;46.618;10.764;2023-02-26T08:05:27;91621.25;;;2.46;31.17
57248;BME280;55809;46.618;10.764;2023-02-26T08:07:55;91595.78;;;2.45;31.19
57248;BME280;55809;46.618;10.764;2023-02-26T08:10:25;91658.56;;;3.17;30.72
57248;BME280;55809;46.618;10.764;2023-02-26T08:12:53;91596.91;;;2.90;30.09
57248;BME280;55809;46.618;10.764;2023-02-26T08:15:22;91658.16;;;3.37;29.32
57248;BME280;55809;46.618;10.764;2023-02-26T08:17:51;91599.16;;;3.10;28.91
57248;BME280;55809;46.618;10.764;2023-02-26T08:20:19;91599.47;;;3.37;29.08
57248;BME280;55809;46.618;10.764;2023-02-26T08:22:49;91579.25;;;3.50;27.77
57248;BME280;55809;46.618;10.764;2023-02-26T08:25:18;91640.69;;;4.20;27.64
57248;BME280;55809;46.618;10.764;2023-02-26T08:27:48;91632.97;;;4.40;27.49
57248;BME280;55809;46.618;10.764;2023-02-26T08:30:16;91649.63;;;4.62;27.08
57248;BME280;55809;46.618;10.764;2023-02-26T08:32:43;91646.41;;;4.85;26.35
57248;BME280;55809;46.618;10.764;2023-02-26T08:35:15;91580.63;;;4.50;26.13
57248;BME280;55809;46.618;10.764;2023-02-26T08:37:43;91646.56;;;5.12;26.14
57248;BME280;55809;46.618;10.764;2023-02-26T08:40:19;91571.44;;;4.54;26.57
57248;BME280;55809;46.618;10.764;2023-02-26T08:42:51;91640.03;;;5.20;26.52
57248;BME280;55809;46.618;10.764;2023-02-26T08:45:20;91639.16;;;5.30;26.08
57248;BME280;55809;46.618;10.764;2023-02-26T08:47:50;91565.91;;;4.23;25.53
57248;BME280;55809;46.618;10.764;2023-02-26T08:50:45;91510.28;;;4.15;26.26
57248;BME280;55809;46.618;10.764;2023-02-26T08:53:52;91498.81;;;4.63;25.69
57248;BME280;55809;46.618;10.764;2023-02-26T08:57:16;91512.41;;;4.34;25.80
57248;BME280;55809;46.618;10.764;2023-02-26T09:00:27;91504.09;;;4.25;26.39
57248;BME280;55809;46.618;10.764;2023-02-26T09:03:44;91510.13;;;4.33;26.51
57248;BME280;55809;46.618;10.764;2023-02-26T09:07:12;91499.38;;;4.43;26.24
57248;BME280;55809;46.618;10.764;2023-02-26T09:09:53;91509.22;;;4.50;26.72
57248;BME280;55809;46.618;10.764;2023-02-26T09:12:36;91565.22;;;5.09;25.85
57248;BME280;55809;46.618;10.764;2023-02-26T09:15:29;91539.78;;;4.94;25.84
57248;BME280;55809;46.618;10.764;2023-02-26T09:18:11;91629.44;;;5.47;26.39
57248;BME280;55809;46.618;10.764;2023-02-26T09:20:47;91518.13;;;4.36;27.08
57248;BME280;55809;46.618;10.764;2023-02-26T09:23:18;91583.16;;;4.64;26.98
57248;BME280;55809;46.618;10.764;2023-02-26T09:26:14;91611.34;;;4.76;26.99
57248;BME280;55809;46.618;10.764;2023-02-26T09:28:44;91575.06;;;4.22;27.63
57248;BME280;55809;46.618;10.764;2023-02-26T09:34:51;91499.31;;;3.25;27.85
57248;BME280;55809;46.618;10.764;2023-02-26T09:37:43;91544.25;;;3.34;28.36
57248;BME280;55809;46.618;10.764;2023-02-26T09:40:36;91559.81;;;3.53;28.13
57248;BME280;55809;46.618;10.764;2023-02-26T09:43:33;91569.72;;;3.45;28.46
57248;BME280;55809;46.618;10.764;2023-02-26T09:46:39;91600.91;;;3.66;27.97
57248;BME280;55809;46.618;10.764;2023-02-26T09:52:37;91542.47;;;2.91;28.93
57248;BME280;55809;46.618;10.764;2023-02-26T09:55:49;91679.00;;;3.78;29.44
57248;BME280;55809;46.618;10.764;2023-02-26T09:58:30;91595.72;;;3.16;29.57
57248;BME280;55809;46.618;10.764;2023-02-26T10:01:17;91550.50;;;2.77;29.63
57248;BME280;55809;46.618;10.764;2023-02-26T10:04:00;91562.66;;;2.56;30.15
57248;BME280;55809;46.618;10.764;2023-02-26T10:07:03;91568.75;;;2.50;29.22
57248;BME280;55809;46.618;10.764;2023-02-26T10:10:08;91593.47;;;2.32;30.01
57248;BME280;55809;46.618;10.764;2023-02-26T10:12:58;91595.75;;;2.23;30.25
57248;BME280;55809;46.618;10.764;2023-02-26T10:16:02;91601.81;;;2.17;29.80
57248;BME280;55809;46.618;10.764;2023-02-26T10:18:58;91666.53;;;2.39;29.36
57248;BME280;55809;46.618;10.764;2023-02-26T10:21:44;91620.44;;;2.02;30.17
57248;BME280;55809;46.618;10.764;2023-02-26T10:28:16;91638.31;;;2.09;30.30
57248;BME280;55809;46.618;10.764;2023-02-26T10:30:59;91626.53;;;2.14;29.92
57248;BME280;55809;46.618;10.764;2023-02-26T10:37:00;91623.44;;;1.94;30.13
57248;BME280;55809;46.618;10.764;2023-02-26T10:39:41;91733.19;;;2.78;30.20
57248;BME280;55809;46.618;10.764;2023-02-26T10:42:26;91636.81;;;2.29;29.87
57248;BME280;55809;46.618;10.764;2023-02-26T10:48:17;91689.34;;;2.43;30.11
57248;BME280;55809;46.618;10.764;2023-02-26T10:50:55;91738.16;;;2.87;30.08
57248;BME280;55809;46.618;10.764;2023-02-26T10:53:32;91670.28;;;2.20;30.33
57248;BME280;55809;46.618;10.764;2023-02-26T10:56:41;91661.91;;;2.14;30.55
57248;BME280;55809;46.618;10.764;2023-02-26T10:59:32;91661.13;;;2.10;31.21
57248;BME280;55809;46.618;10.764;2023-02-26T11:02:54;91678.66;;;2.25;30.69
57248;BME280;55809;46.618;10.764;2023-02-26T11:05:33;91768.97;;;2.91;30.93
57248;BME280;55809;46.618;10.764;2023-02-26T11:08:11;91743.44;;;2.76;31.49
57248;BME280;55809;46.618;10.764;2023-02-26T11:14:21;91754.13;;;2.90;30.94
57248;BME280;55809;46.618;10.764;2023-02-26T11:17:09;91697.34;;;2.43;31.13
57248;BME280;55809;46.618;10.764;2023-02-26T11:26:31;91756.84;;;3.26;30.81
57248;BME280;55809;46.618;10.764;2023-02-26T11:29:05;91705.41;;;2.97;31.22
57248;BME280;55809;46.618;10.764;2023-02-26T11:31:33;91822.75;;;3.86;31.16
57248;BME280;55809;46.618;10.764;2023-02-26T11:34:10;91696.25;;;2.94;30.99
57248;BME280;55809;46.618;10.764;2023-02-26T11:36:43;91802.19;;;3.69;30.93
57248;BME280;55809;46.618;10.764;2023-02-26T11:39:38;91808.22;;;3.91;30.45
57248;BME280;55809;46.618;10.764;2023-02-26T11:42:26;91796.41;;;3.95;30.95
57248;BME280;55809;46.618;10.764;2023-02-26T11:45:07;91698.94;;;3.30;29.54
57248;BME280;55809;46.618;10.764;2023-02-26T11:51:06;91719.47;;;3.22;30.16
57248;BME280;55809;46.618;10.764;2023-02-26T11:54:18;91781.94;;;3.71;30.60
57248;BME280;55809;46.618;10.764;2023-02-26T11:57:17;91726.34;;;3.34;30.94
57248;BME280;55809;46.618;10.764;2023-02-26T12:00:24;91706.56;;;3.17;30.80
57248;BME280;55809;46.618;10.764;2023-02-26T12:03:15;91704.25;;;3.16;30.84
57248;BME280;55809;46.618;10.764;2023-02-26T12:06:21;91703.13;;;3.13;30.63
57248;BME280;55809;46.618;10.764;2023-02-26T12:08:53;91768.25;;;3.69;30.95
57248;BME280;55809;46.618;10.764;2023-02-26T12:15:45;91762.53;;;3.60;31.38
57248;BME280;55809;46.618;10.764;2023-02-26T12:18:42;91725.19;;;3.35;31.53
57248;BME280;55809;46.618;10.764;2023-02-26T12:22:01;91708.84;;;3.26;32.04
57248;BME280;55809;46.618;10.764;2023-02-26T12:25:00;91740.44;;;3.35;32.10
57248;BME280;55809;46.618;10.764;2023-02-26T12:28:02;91758.72;;;3.58;31.42
57248;BME280;55809;46.618;10.764;2023-02-26T12:34:21;91721.75;;;3.42;31.69
57248;BME280;55809;46.618;10.764;2023-02-26T12:37:24;91830.69;;;4.29;31.16
57248;BME280;55809;46.618;10.764;2023-02-26T12:40:20;91727.13;;;3.06;32.42
57248;BME280;55809;46.618;10.764;2023-02-26T12:43:10;91729.34;;;2.72;34.15
57248;BME280;55809;46.618;10.764;2023-02-26T12:45:49;91800.56;;;2.89;35.38
57248;BME280;55809;46.618;10.764;2023-02-26T13:02:21;91807.09;;;3.17;34.80
57248;BME280;55809;46.618;10.764;2023-02-26T13:05:43;91865.81;;;3.56;33.34
57248;BME280;55809;46.618;10.764;2023-02-26T13:08:27;91866.56;;;3.64;33.36
57248;BME280;55809;46.618;10.764;2023-02-26T13:11:49;91818.53;;;3.32;33.32
57248;BME280;55809;46.618;10.764;2023-02-26T13:15:05;91804.44;;;3.35;33.35
57248;BME280;55809;46.618;10.764;2023-02-26T13:21:29;91770.94;;;3.30;33.13
57248;BME280;55809;46.618;10.764;2023-02-26T13:24:33;91772.81;;;3.15;32.54
57248;BME280;55809;46.618;10.764;2023-02-26T13:30:33;91876.50;;;3.92;32.99
57248;BME280;55809;46.618;10.764;2023-02-26T13:33:36;91846.75;;;3.90;32.83
57248;BME280;55809;46.618;10.764;2023-02-26T13:36:09;91810.16;;;3.40;32.26
57248;BME280;55809;46.618;10.764;2023-02-26T13:45:47;91780.03;;;3.04;32.94
57248;BME280;55809;46.618;10.764;2023-02-26T13:48:55;91880.69;;;3.82;33.14
57248;BME280;55809;46.618;10.764;2023-02-26T13:51:52;91777.03;;;3.16;32.80
57248;BME280;55809;46.618;10.764;2023-02-26T13:54:41;91770.13;;;3.12;33.35
57248;BME280;55809;46.618;10.764;2023-02-26T13:57:47;91778.94;;;3.19;33.38
57248;BME280;55809;46.618;10.764;2023-02-26T14:00:36;91897.84;;;4.06;33.37
57248;BME280;55809;46.618;10.764;2023-02-26T14:03:30;91883.38;;;3.79;33.17
57248;BME280;55809;46.618;10.764;2023-02-26T14:06:35;91884.50;;;3.99;32.80
57248;BME280;55809;46.618;10.764;2023-02-26T14:12:41;91810.16;;;3.29;32.69
57248;BME280;55809;46.618;10.764;2023-02-26T14:15:38;91914.25;;;4.01;33.27
57248;BME280;55809;46.618;10.764;2023-02-26T14:18:51;91804.81;;;3.12;33.06
57248;BME280;55809;46.618;10.764;2023-02-26T14:21:45;91812.81;;;3.19;33.06
57248;BME280;55809;46.618;10.764;2023-02-26T14:24:21;91890.19;;;3.62;34.03
57248;BME280;55809;46.618;10.764;2023-02-26T14:27:22;91816.22;;;3.09;33.86
57248;BME280;55809;46.618;10.764;2023-02-26T14:30:28;91812.78;;;2.94;32.63
57248;BME280;55809;46.618;10.764;2023-02-26T14:33:30;91788.03;;;2.93;33.34
57248;BME280;55809;46.618;10.764;2023-02-26T14:36:05;91802.16;;;3.29;33.58
57248;BME280;55809;46.618;10.764;2023-02-26T14:38:48;91792.63;;;3.32;33.41
57248;BME280;55809;46.618;10.764;2023-02-26T14:41:30;91785.38;;;3.29;33.57
57248;BME280;55809;46.618;10.764;2023-02-26T14:44:09;91801.78;;;3.42;33.86
57248;BME280;55809;46.618;10.764;2023-02-26T14:46:52;91797.97;;;3.32;32.84
57248;BME280;55809;46.618;10.764;2023-02-26T14:49:32;91863.16;;;3.74;32.88
57248;BME280;55809;46.618;10.764;2023-02-26T14:52:47;91904.72;;;4.00;33.24
57248;BME280;55809;46.618;10.764;2023-02-26T14:55:44;91865.81;;;3.81;33.79
57248;BME280;55809;46.618;10.764;2023-02-26T14:58:44;91913.84;;;4.38;34.14
57248;BME280;55809;46.618;10.764;2023-02-26T15:01:41;91812.81;;;3.58;32.71
57248;BME280;55809;46.618;10.764;2023-02-26T15:04:22;91911.56;;;4.33;34.45
57248;BME280;55809;46.618;10.764;2023-02-26T15:07:14;91806.75;;;3.54;33.78
57248;BME280;55809;46.618;10.764;2023-02-26T15:10:36;91897.09;;;4.09;33.53
57248;BME280;55809;46.618;10.764;2023-02-26T15:13:32;91852.88;;;3.65;33.71
57248;BME280;55809;46.618;10.764;2023-02-26T15:16:14;91815.50;;;3.44;33.05